sensor_id;sensor_type;location;lat;lon;timestamp;temperature;humidity
20712;DHT22;10517;50.742;4.224;2023-02-11T00:01:59;6.40;99.90
20712;DHT22;10517;50.742;4.224;2023-02-11T00:04:25;6.40;99.90
20712;DHT22;10517;50.742;4.224;2023-02-11T00:06:51;6.50;99.90
20712;DHT22;10517;50.742;4.224;2023-02-11T00:09:16;6.50;99.90
20712;DHT22;10517;50.742;4.224;2023-02-11T00:11:42;6.50;99.90
20712;DHT22;10517;50.742;4.224;2023-02-11T00:14:09;6.50;99.90
20712;DHT22;10517;50.742;4.224;2023-02-11T00:16:35;6.60;99.90
20712;DHT22;10517;50.742;4.224;2023-02-11T00:19:02;6.70;99.90
20712;DHT22;10517;50.742;4.224;2023-02-11T00:21:28;6.80;99.90
20712;DHT22;10517;50.742;4.224;2023-02-11T00:23:55;6.70;99.90
20712;DHT22;10517;50.742;4.224;2023-02-11T00:26:24;6.70;99.90
20712;DHT22;10517;50.742;4.224;2023-02-11T00:28:50;6.60;99.90
20712;DHT22;10517;50.742;4.224;2023-02-11T00:31:18;6.50;99.90
20712;DHT22;10517;50.742;4.224;2023-02-11T00:33:45;6.50;99.90
20712;DHT22;10517;50.742;4.224;2023-02-11T00:36:14;6.50;99.90
20712;DHT22;10517;50.742;4.224;2023-02-11T00:38:45;6.40;99.90
20712;DHT22;10517;50.742;4.224;2023-02-11T00:41:11;6.40;99.90
20712;DHT22;10517;50.742;4.224;2023-02-11T00:43:38;6.30;99.90
20712;DHT22;10517;50.742;4.224;2023-02-11T00:46:04;6.20;99.90
20712;DHT22;10517;50.742;4.224;2023-02-11T00:48:30;6.20;99.90
20712;DHT22;10517;50.742;4.224;2023-02-11T00:50:56;6.10;99.90
20712;DHT22;10517;50.742;4.224;2023-02-11T00:53:21;6.00;99.90
20712;DHT22;10517;50.742;4.224;2023-02-11T00:55:47;6.00;99.90
20712;DHT22;10517;50.742;4.224;2023-02-11T00:58:12;5.90;99.90
20712;DHT22;10517;50.742;4.224;2023-02-11T01:00:38;6.00;99.90
20712;DHT22;10517;50.742;4.224;2023-02-11T01:03:04;5.90;99.90
20712;DHT22;10517;50.742;4.224;2023-02-11T01:05:30;5.80;99.90
20712;DHT22;10517;50.742;4.224;2023-02-11T01:07:55;5.80;99.90
20712;DHT22;10517;50.742;4.224;2023-02-11T01:10:22;5.80;99.90
20712;DHT22;10517;50.742;4.224;2023-02-11T01:12:47;5.70;99.90
20712;DHT22;10517;50.742;4.224;2023-02-11T01:15:15;5.70;99.90
20712;DHT22;10517;50.742;4.224;2023-02-11T01:17:41;5.90;99.90
20712;DHT22;10517;50.742;4.224;2023-02-11T01:20:13;5.90;99.90
20712;DHT22;10517;50.742;4.224;2023-02-11T01:22:39;6.10;99.90
20712;DHT22;10517;50.742;4.224;2023-02-11T01:25:05;6.20;99.90
20712;DHT22;10517;50.742;4.224;2023-02-11T01:27:31;6.20;99.90
20712;DHT22;10517;50.742;4.224;2023-02-11T01:29:57;6.30;99.90
20712;DHT22;10517;50.742;4.224;2023-02-11T01:32:22;6.30;99.90
20712;DHT22;10517;50.742;4.224;2023-02-11T01:34:48;6.40;99.90
20712;DHT22;10517;50.742;4.224;2023-02-11T01:37:13;6.50;99.90
20712;DHT22;10517;50.742;4.224;2023-02-11T01:39:39;6.60;99.90
20712;DHT22;10517;50.742;4.224;2023-02-11T01:42:05;6.50;99.90
20712;DHT22;10517;50.742;4.224;2023-02-11T01:44:34;6.60;99.90
20712;DHT22;10517;50.742;4.224;2023-02-11T01:47:00;6.60;99.90
20712;DHT22;10517;50.742;4.224;2023-02-11T01:49:35;6.60;99.90
20712;DHT22;10517;50.742;4.224;2023-02-11T01:52:11;6.80;99.90
20712;DHT22;10517;50.742;4.224;2023-02-11T01:54:43;6.90;99.90
20712;DHT22;10517;50.742;4.224;2023-02-11T01:57:31;6.90;99.90
20712;DHT22;10517;50.742;4.224;2023-02-11T02:02:48;6.90;99.90
20712;DHT22;10517;50.742;4.224;2023-02-11T02:05:22;7.00;99.90
20712;DHT22;10517;50.742;4.224;2023-02-11T02:08:16;6.90;99.90
20712;DHT22;10517;50.742;4.224;2023-02-11T02:10:45;7.00;99.90
20712;DHT22;10517;50.742;4.224;2023-02-11T02:13:12;7.00;99.90
20712;DHT22;10517;50.742;4.224;2023-02-11T02:15:48;7.00;99.90
20712;DHT22;10517;50.742;4.224;2023-02-11T02:21:19;7.00;99.90
20712;DHT22;10517;50.742;4.224;2023-02-11T02:29:54;7.00;99.90
20712;DHT22;10517;50.742;4.224;2023-02-11T02:35:14;7.20;99.90
20712;DHT22;10517;50.742;4.224;2023-02-11T02:37:46;7.20;99.90
20712;DHT22;10517;50.742;4.224;2023-02-11T02:40:23;7.10;99.90
20712;DHT22;10517;50.742;4.224;2023-02-11T02:42:50;7.10;99.90
20712;DHT22;10517;50.742;4.224;2023-02-11T02:45:17;7.20;99.90
20712;DHT22;10517;50.742;4.224;2023-02-11T02:47:43;7.20;99.90
20712;DHT22;10517;50.742;4.224;2023-02-11T02:50:10;7.50;99.90
20712;DHT22;10517;50.742;4.224;2023-02-11T02:52:58;7.50;99.90
20712;DHT22;10517;50.742;4.224;2023-02-11T02:55:46;7.40;99.90
20712;DHT22;10517;50.742;4.224;2023-02-11T02:58:33;7.30;99.90
20712;DHT22;10517;50.742;4.224;2023-02-11T03:01:22;7.40;99.90
20712;DHT22;10517;50.742;4.224;2023-02-11T03:04:10;7.40;99.90
20712;DHT22;10517;50.742;4.224;2023-02-11T03:06:50;7.40;99.90
20712;DHT22;10517;50.742;4.224;2023-02-11T03:09:24;7.50;99.90
20712;DHT22;10517;50.742;4.224;2023-02-11T03:11:51;7.50;99.90
20712;DHT22;10517;50.742;4.224;2023-02-11T03:14:17;7.50;99.90
20712;DHT22;10517;50.742;4.224;2023-02-11T03:16:45;7.50;99.90
20712;DHT22;10517;50.742;4.224;2023-02-11T03:19:32;7.50;99.90
20712;DHT22;10517;50.742;4.224;2023-02-11T03:22:01;7.50;99.90
20712;DHT22;10517;50.742;4.224;2023-02-11T03:24:33;7.40;99.90
20712;DHT22;10517;50.742;4.224;2023-02-11T03:27:08;7.40;99.90
20712;DHT22;10517;50.742;4.224;2023-02-11T03:32:36;7.40;99.90
20712;DHT22;10517;50.742;4.224;2023-02-11T03:35:08;7.40;99.90
20712;DHT22;10517;50.742;4.224;2023-02-11T03:37:48;7.40;99.90
20712;DHT22;10517;50.742;4.224;2023-02-11T03:40:19;7.40;99.90
20712;DHT22;10517;50.742;4.224;2023-02-11T03:42:50;7.40;99.90
20712;DHT22;10517;50.742;4.224;2023-02-11T03:45:19;7.50;99.90
20712;DHT22;10517;50.742;4.224;2023-02-11T03:47:49;7.50;99.90
20712;DHT22;10517;50.742;4.224;2023-02-11T03:50:17;7.50;99.90
20712;DHT22;10517;50.742;4.224;2023-02-11T03:52:45;7.40;99.90
20712;DHT22;10517;50.742;4.224;2023-02-11T03:55:16;7.50;99.90
20712;DHT22;10517;50.742;4.224;2023-02-11T03:57:43;7.50;99.90
20712;DHT22;10517;50.742;4.224;2023-02-11T04:00:09;7.50;99.90
20712;DHT22;10517;50.742;4.224;2023-02-11T04:02:37;7.50;99.90
20712;DHT22;10517;50.742;4.224;2023-02-11T04:05:04;7.50;99.90
20712;DHT22;10517;50.742;4.224;2023-02-11T04:07:31;7.50;99.90
20712;DHT22;10517;50.742;4.224;2023-02-11T04:09:57;7.60;99.90
20712;DHT22;10517;50.742;4.224;2023-02-11T04:12:22;7.60;99.90
20712;DHT22;10517;50.742;4.224;2023-02-11T04:14:48;7.60;99.90
20712;DHT22;10517;50.742;4.224;2023-02-11T04:17:14;7.60;99.90
20712;DHT22;10517;50.742;4.224;2023-02-11T04:19:39;7.70;99.90
20712;DHT22;10517;50.742;4.224;2023-02-11T04:22:05;7.70;99.90
20712;DHT22;10517;50.742;4.224;2023-02-11T04:24:31;7.70;99.90
20712;DHT22;10517;50.742;4.224;2023-02-11T04:26:57;7.60;99.90
20712;DHT22;10517;50.742;4.224;2023-02-11T04:29:22;7.50;99.90
20712;DHT22;10517;50.742;4.224;2023-02-11T04:31:48;7.50;99.90
20712;DHT22;10517;50.742;4.224;2023-02-11T04:34:14;7.60;99.90
20712;DHT22;10517;50.742;4.224;2023-02-11T04:36:40;7.60;99.90
20712;DHT22;10517;50.742;4.224;2023-02-11T04:39:06;7.60;99.90
20712;DHT22;10517;50.742;4.224;2023-02-11T04:41:31;7.60;99.90
20712;DHT22;10517;50.742;4.224;2023-02-11T04:43:57;7.60;99.90
20712;DHT22;10517;50.742;4.224;2023-02-11T04:46:23;7.60;99.90
20712;DHT22;10517;50.742;4.224;2023-02-11T04:48:48;7.70;99.90
20712;DHT22;10517;50.742;4.224;2023-02-11T04:51:14;7.70;99.90
20712;DHT22;10517;50.742;4.224;2023-02-11T04:53:40;7.80;99.90
20712;DHT22;10517;50.742;4.224;2023-02-11T04:56:06;7.80;99.90
20712;DHT22;10517;50.742;4.224;2023-02-11T04:58:31;7.70;99.90
20712;DHT22;10517;50.742;4.224;2023-02-11T05:01:05;7.70;99.90
20712;DHT22;10517;50.742;4.224;2023-02-11T05:03:31;7.80;99.90
20712;DHT22;10517;50.742;4.224;2023-02-11T05:05:56;7.90;99.90
20712;DHT22;10517;50.742;4.224;2023-02-11T05:08:22;7.80;99.90
20712;DHT22;10517;50.742;4.224;2023-02-11T05:10:47;7.80;99.90
20712;DHT22;10517;50.742;4.224;2023-02-11T05:13:13;7.80;99.90
20712;DHT22;10517;50.742;4.224;2023-02-11T05:15:39;7.90;99.90
20712;DHT22;10517;50.742;4.224;2023-02-11T05:18:04;7.90;99.90
20712;DHT22;10517;50.742;4.224;2023-02-11T05:20:30;7.90;99.90
20712;DHT22;10517;50.742;4.224;2023-02-11T05:22:55;7.80;99.90
20712;DHT22;10517;50.742;4.224;2023-02-11T05:25:21;7.90;99.90
20712;DHT22;10517;50.742;4.224;2023-02-11T05:27:46;7.90;99.90
20712;DHT22;10517;50.742;4.224;2023-02-11T05:30:12;7.90;99.90
20712;DHT22;10517;50.742;4.224;2023-02-11T05:32:38;7.80;99.90
20712;DHT22;10517;50.742;4.224;2023-02-11T05:35:04;7.80;99.90
20712;DHT22;10517;50.742;4.224;2023-02-11T05:37:29;7.80;99.90
20712;DHT22;10517;50.742;4.224;2023-02-11T05:39:55;7.70;99.90
20712;DHT22;10517;50.742;4.224;2023-02-11T05:42:20;7.70;99.90
20712;DHT22;10517;50.742;4.224;2023-02-11T05:44:46;7.70;99.90
20712;DHT22;10517;50.742;4.224;2023-02-11T05:47:11;7.70;99.90
20712;DHT22;10517;50.742;4.224;2023-02-11T05:49:37;7.70;99.90
20712;DHT22;10517;50.742;4.224;2023-02-11T05:52:03;7.60;99.90
20712;DHT22;10517;50.742;4.224;2023-02-11T05:54:29;7.70;99.90
20712;DHT22;10517;50.742;4.224;2023-02-11T05:56:55;7.70;99.90
20712;DHT22;10517;50.742;4.224;2023-02-11T05:59:21;7.70;99.90
20712;DHT22;10517;50.742;4.224;2023-02-11T06:01:46;7.80;99.90
20712;DHT22;10517;50.742;4.224;2023-02-11T06:04:12;7.70;99.90
20712;DHT22;10517;50.742;4.224;2023-02-11T06:06:37;7.70;99.90
20712;DHT22;10517;50.742;4.224;2023-02-11T06:09:03;7.70;99.90
20712;DHT22;10517;50.742;4.224;2023-02-11T06:11:28;7.70;99.90
20712;DHT22;10517;50.742;4.224;2023-02-11T06:13:54;7.70;99.90
20712;DHT22;10517;50.742;4.224;2023-02-11T06:16:20;7.70;99.90
20712;DHT22;10517;50.742;4.224;2023-02-11T06:18:45;7.80;99.90
20712;DHT22;10517;50.742;4.224;2023-02-11T06:21:11;7.80;99.90
20712;DHT22;10517;50.742;4.224;2023-02-11T06:23:37;7.80;99.90
20712;DHT22;10517;50.742;4.224;2023-02-11T06:26:05;7.90;99.90
20712;DHT22;10517;50.742;4.224;2023-02-11T06:28:31;7.90;99.90
20712;DHT22;10517;50.742;4.224;2023-02-11T06:30:58;7.80;99.90
20712;DHT22;10517;50.742;4.224;2023-02-11T06:33:23;7.70;99.90
20712;DHT22;10517;50.742;4.224;2023-02-11T06:35:49;7.70;99.90
20712;DHT22;10517;50.742;4.224;2023-02-11T06:38:15;7.70;99.90
20712;DHT22;10517;50.742;4.224;2023-02-11T06:40:46;7.70;99.90
20712;DHT22;10517;50.742;4.224;2023-02-11T06:43:11;7.70;99.90
20712;DHT22;10517;50.742;4.224;2023-02-11T06:45:37;7.80;99.90
20712;DHT22;10517;50.742;4.224;2023-02-11T06:48:03;7.90;99.90
20712;DHT22;10517;50.742;4.224;2023-02-11T06:50:28;7.90;99.90
20712;DHT22;10517;50.742;4.224;2023-02-11T06:52:54;7.80;99.90
20712;DHT22;10517;50.742;4.224;2023-02-11T06:55:19;7.80;99.90
20712;DHT22;10517;50.742;4.224;2023-02-11T06:57:45;8.00;99.90
20712;DHT22;10517;50.742;4.224;2023-02-11T07:00:11;7.90;99.90
20712;DHT22;10517;50.742;4.224;2023-02-11T07:02:37;8.00;99.90
20712;DHT22;10517;50.742;4.224;2023-02-11T07:05:04;8.00;99.90
20712;DHT22;10517;50.742;4.224;2023-02-11T07:07:30;8.00;99.90
20712;DHT22;10517;50.742;4.224;2023-02-11T07:09:56;8.00;99.90
20712;DHT22;10517;50.742;4.224;2023-02-11T07:12:22;8.00;99.90
20712;DHT22;10517;50.742;4.224;2023-02-11T07:14:48;8.00;99.90
20712;DHT22;10517;50.742;4.224;2023-02-11T07:17:13;7.90;99.90
20712;DHT22;10517;50.742;4.224;2023-02-11T07:19:39;8.00;99.90
20712;DHT22;10517;50.742;4.224;2023-02-11T07:22:04;8.10;99.90
20712;DHT22;10517;50.742;4.224;2023-02-11T07:24:30;8.00;99.90
20712;DHT22;10517;50.742;4.224;2023-02-11T07:26:56;7.90;99.90
20712;DHT22;10517;50.742;4.224;2023-02-11T07:29:21;8.00;99.90
20712;DHT22;10517;50.742;4.224;2023-02-11T07:31:47;8.00;99.90
20712;DHT22;10517;50.742;4.224;2023-02-11T07:34:12;8.00;99.90
20712;DHT22;10517;50.742;4.224;2023-02-11T07:36:38;8.00;99.90
20712;DHT22;10517;50.742;4.224;2023-02-11T07:39:03;8.10;99.90
20712;DHT22;10517;50.742;4.224;2023-02-11T07:41:29;8.10;99.90
20712;DHT22;10517;50.742;4.224;2023-02-11T07:43:55;8.20;99.90
20712;DHT22;10517;50.742;4.224;2023-02-11T07:46:25;8.20;99.90
20712;DHT22;10517;50.742;4.224;2023-02-11T07:48:52;8.20;99.90
20712;DHT22;10517;50.742;4.224;2023-02-11T07:51:26;8.20;99.90
20712;DHT22;10517;50.742;4.224;2023-02-11T07:53:53;8.20;99.90
20712;DHT22;10517;50.742;4.224;2023-02-11T07:56:20;8.40;99.90
20712;DHT22;10517;50.742;4.224;2023-02-11T07:58:47;8.40;99.90
20712;DHT22;10517;50.742;4.224;2023-02-11T08:01:16;8.40;99.90
20712;DHT22;10517;50.742;4.224;2023-02-11T08:03:42;8.40;99.90
20712;DHT22;10517;50.742;4.224;2023-02-11T08:06:10;8.50;99.90
20712;DHT22;10517;50.742;4.224;2023-02-11T08:08:36;8.50;99.90
20712;DHT22;10517;50.742;4.224;2023-02-11T08:11:10;8.60;99.90
20712;DHT22;10517;50.742;4.224;2023-02-11T08:13:36;8.60;99.90
20712;DHT22;10517;50.742;4.224;2023-02-11T08:16:03;8.40;99.90
20712;DHT22;10517;50.742;4.224;2023-02-11T08:18:30;8.40;99.90
20712;DHT22;10517;50.742;4.224;2023-02-11T08:20:55;8.40;99.90
20712;DHT22;10517;50.742;4.224;2023-02-11T08:23:21;8.40;99.90
20712;DHT22;10517;50.742;4.224;2023-02-11T08:25:46;8.50;99.90
20712;DHT22;10517;50.742;4.224;2023-02-11T08:28:12;8.60;99.90
20712;DHT22;10517;50.742;4.224;2023-02-11T08:30:38;8.60;99.90
20712;DHT22;10517;50.742;4.224;2023-02-11T08:33:03;8.60;99.90
20712;DHT22;10517;50.742;4.224;2023-02-11T08:35:29;8.60;99.90
20712;DHT22;10517;50.742;4.224;2023-02-11T08:37:54;8.60;99.90
20712;DHT22;10517;50.742;4.224;2023-02-11T08:40:20;8.60;99.90
20712;DHT22;10517;50.742;4.224;2023-02-11T08:42:46;8.50;99.90
20712;DHT22;10517;50.742;4.224;2023-02-11T08:45:11;8.60;99.90
20712;DHT22;10517;50.742;4.224;2023-02-11T08:47:38;8.60;99.90
20712;DHT22;10517;50.742;4.224;2023-02-11T08:50:04;8.60;99.90
20712;DHT22;10517;50.742;4.224;2023-02-11T08:52:30;8.60;99.90
20712;DHT22;10517;50.742;4.224;2023-02-11T08:54:55;8.50;99.90
20712;DHT22;10517;50.742;4.224;2023-02-11T08:57:21;8.50;99.90
20712;DHT22;10517;50.742;4.224;2023-02-11T08:59:46;8.50;99.90
20712;DHT22;10517;50.742;4.224;2023-02-11T09:02:13;8.50;99.90
20712;DHT22;10517;50.742;4.224;2023-02-11T09:04:38;8.60;99.90
20712;DHT22;10517;50.742;4.224;2023-02-11T09:07:04;8.70;99.90
20712;DHT22;10517;50.742;4.224;2023-02-11T09:09:30;8.70;99.90
20712;DHT22;10517;50.742;4.224;2023-02-11T09:11:56;8.60;99.90
20712;DHT22;10517;50.742;4.224;2023-02-11T09:14:23;8.70;99.90
20712;DHT22;10517;50.742;4.224;2023-02-11T09:16:49;8.80;99.90
20712;DHT22;10517;50.742;4.224;2023-02-11T09:19:16;8.80;99.90
20712;DHT22;10517;50.742;4.224;2023-02-11T09:21:42;8.80;99.90
20712;DHT22;10517;50.742;4.224;2023-02-11T09:24:08;8.90;99.90
20712;DHT22;10517;50.742;4.224;2023-02-11T09:26:35;8.90;99.90
20712;DHT22;10517;50.742;4.224;2023-02-11T09:29:01;8.70;99.90
20712;DHT22;10517;50.742;4.224;2023-02-11T09:31:28;8.80;99.90
20712;DHT22;10517;50.742;4.224;2023-02-11T09:33:56;8.90;99.90
20712;DHT22;10517;50.742;4.224;2023-02-11T09:36:30;8.90;99.90
20712;DHT22;10517;50.742;4.224;2023-02-11T09:38:58;8.90;99.90
20712;DHT22;10517;50.742;4.224;2023-02-11T09:42:01;8.90;99.90
20712;DHT22;10517;50.742;4.224;2023-02-11T09:44:33;8.90;99.90
20712;DHT22;10517;50.742;4.224;2023-02-11T09:47:44;8.90;99.90
20712;DHT22;10517;50.742;4.224;2023-02-11T09:49:53;8.90;99.90
20712;DHT22;10517;50.742;4.224;2023-02-11T09:54:55;9.10;99.90
20712;DHT22;10517;50.742;4.224;2023-02-11T09:57:25;9.10;99.90
20712;DHT22;10517;50.742;4.224;2023-02-11T09:59:52;9.10;99.90
20712;DHT22;10517;50.742;4.224;2023-02-11T10:05:19;9.10;99.90
20712;DHT22;10517;50.742;4.224;2023-02-11T10:10:37;9.40;99.90
20712;DHT22;10517;50.742;4.224;2023-02-11T10:16:23;9.40;99.90
20712;DHT22;10517;50.742;4.224;2023-02-11T10:24:26;9.60;99.90
20712;DHT22;10517;50.742;4.224;2023-02-11T10:26:53;9.70;99.90
20712;DHT22;10517;50.742;4.224;2023-02-11T10:29:39;9.70;99.90
20712;DHT22;10517;50.742;4.224;2023-02-11T10:32:31;9.80;99.90
20712;DHT22;10517;50.742;4.224;2023-02-11T10:35:02;10.00;99.90
20712;DHT22;10517;50.742;4.224;2023-02-11T10:37:34;9.90;99.90
20712;DHT22;10517;50.742;4.224;2023-02-11T10:40:00;9.90;99.90
20712;DHT22;10517;50.742;4.224;2023-02-11T10:42:26;9.90;99.90
20712;DHT22;10517;50.742;4.224;2023-02-11T10:45:01;10.00;99.90
20712;DHT22;10517;50.742;4.224;2023-02-11T10:47:31;10.00;99.90
20712;DHT22;10517;50.742;4.224;2023-02-11T10:49:58;10.00;99.90
20712;DHT22;10517;50.742;4.224;2023-02-11T10:52:28;10.00;99.90
20712;DHT22;10517;50.742;4.224;2023-02-11T10:55:01;9.90;99.90
20712;DHT22;10517;50.742;4.224;2023-02-11T10:57:32;10.00;99.90
20712;DHT22;10517;50.742;4.224;2023-02-11T11:00:06;10.00;99.90
20712;DHT22;10517;50.742;4.224;2023-02-11T11:02:35;10.10;99.90
20712;DHT22;10517;50.742;4.224;2023-02-11T11:05:15;10.10;99.90
20712;DHT22;10517;50.742;4.224;2023-02-11T11:07:52;10.30;99.90
20712;DHT22;10517;50.742;4.224;2023-02-11T11:10:39;10.30;99.90
20712;DHT22;10517;50.742;4.224;2023-02-11T11:13:32;10.30;99.90
20712;DHT22;10517;50.742;4.224;2023-02-11T11:18:37;10.40;99.90
20712;DHT22;10517;50.742;4.224;2023-02-11T11:21:05;10.30;99.90
20712;DHT22;10517;50.742;4.224;2023-02-11T11:23:34;10.30;99.90
20712;DHT22;10517;50.742;4.224;2023-02-11T11:28:28;10.20;99.90
20712;DHT22;10517;50.742;4.224;2023-02-11T11:30:56;10.30;99.90
20712;DHT22;10517;50.742;4.224;2023-02-11T11:33:29;10.20;99.90
20712;DHT22;10517;50.742;4.224;2023-02-11T11:36:09;10.20;99.90
20712;DHT22;10517;50.742;4.224;2023-02-11T11:38:42;10.30;99.90
20712;DHT22;10517;50.742;4.224;2023-02-11T11:46:34;10.10;99.90
20712;DHT22;10517;50.742;4.224;2023-02-11T11:54:57;10.40;99.90
20712;DHT22;10517;50.742;4.224;2023-02-11T11:57:27;10.40;99.90
20712;DHT22;10517;50.742;4.224;2023-02-11T11:59:54;10.50;99.90
20712;DHT22;10517;50.742;4.224;2023-02-11T12:05:07;10.60;99.90
20712;DHT22;10517;50.742;4.224;2023-02-11T12:13:10;10.70;99.90
20712;DHT22;10517;50.742;4.224;2023-02-11T12:18:14;10.70;99.90
20712;DHT22;10517;50.742;4.224;2023-02-11T12:23:29;10.60;99.90
20712;DHT22;10517;50.742;4.224;2023-02-11T12:26:23;10.60;99.90
20712;DHT22;10517;50.742;4.224;2023-02-11T12:35:26;10.60;99.90
20712;DHT22;10517;50.742;4.224;2023-02-11T12:40:44;10.60;99.90
20712;DHT22;10517;50.742;4.224;2023-02-11T12:43:23;10.70;99.90
20712;DHT22;10517;50.742;4.224;2023-02-11T12:59:09;10.90;99.90
20712;DHT22;10517;50.742;4.224;2023-02-11T13:01:39;10.80;99.90
20712;DHT22;10517;50.742;4.224;2023-02-11T13:04:24;10.70;99.90
20712;DHT22;10517;50.742;4.224;2023-02-11T13:06:56;10.80;99.90
20712;DHT22;10517;50.742;4.224;2023-02-11T13:09:26;10.90;99.90
20712;DHT22;10517;50.742;4.224;2023-02-11T13:11:56;10.90;99.90
20712;DHT22;10517;50.742;4.224;2023-02-11T13:14:37;11.00;99.90
20712;DHT22;10517;50.742;4.224;2023-02-11T13:17:15;11.00;99.90
20712;DHT22;10517;50.742;4.224;2023-02-11T13:19:47;10.90;99.90
20712;DHT22;10517;50.742;4.224;2023-02-11T13:22:30;10.90;99.90
20712;DHT22;10517;50.742;4.224;2023-02-11T13:30:37;10.80;99.90
20712;DHT22;10517;50.742;4.224;2023-02-11T13:33:33;10.80;99.90
20712;DHT22;10517;50.742;4.224;2023-02-11T13:38:26;10.90;99.90
20712;DHT22;10517;50.742;4.224;2023-02-11T13:41:02;11.00;99.90
20712;DHT22;10517;50.742;4.224;2023-02-11T13:43:30;10.90;99.90
20712;DHT22;10517;50.742;4.224;2023-02-11T13:46:07;10.80;99.90
20712;DHT22;10517;50.742;4.224;2023-02-11T13:48:46;11.00;99.90
20712;DHT22;10517;50.742;4.224;2023-02-11T13:51:15;11.00;99.90
20712;DHT22;10517;50.742;4.224;2023-02-11T13:53:48;11.00;99.90
20712;DHT22;10517;50.742;4.224;2023-02-11T13:56:33;11.00;99.90
20712;DHT22;10517;50.742;4.224;2023-02-11T14:04:32;10.80;99.90
20712;DHT22;10517;50.742;4.224;2023-02-11T14:07:26;10.80;99.90
20712;DHT22;10517;50.742;4.224;2023-02-11T14:16:09;10.90;99.90
20712;DHT22;10517;50.742;4.224;2023-02-11T14:32:04;10.90;99.90
20712;DHT22;10517;50.742;4.224;2023-02-11T14:43:15;10.90;99.90
20712;DHT22;10517;50.742;4.224;2023-02-11T14:45:50;10.90;99.90
20712;DHT22;10517;50.742;4.224;2023-02-11T14:48:18;10.80;99.90
20712;DHT22;10517;50.742;4.224;2023-02-11T14:50:45;10.80;99.90
20712;DHT22;10517;50.742;4.224;2023-02-11T14:53:17;10.90;99.90
20712;DHT22;10517;50.742;4.224;2023-02-11T14:55:49;10.70;99.90
20712;DHT22;10517;50.742;4.224;2023-02-11T14:58:18;10.70;99.90
20712;DHT22;10517;50.742;4.224;2023-02-11T15:01:05;10.80;99.90
20712;DHT22;10517;50.742;4.224;2023-02-11T15:06:34;10.90;99.90
20712;DHT22;10517;50.742;4.224;2023-02-11T15:11:55;10.80;99.90
20712;DHT22;10517;50.742;4.224;2023-02-11T15:14:32;10.80;99.90
20712;DHT22;10517;50.742;4.224;2023-02-11T15:17:02;10.80;99.90
20712;DHT22;10517;50.742;4.224;2023-02-11T15:19:40;10.90;99.90
20712;DHT22;10517;50.742;4.224;2023-02-11T15:22:21;11.00;99.90
20712;DHT22;10517;50.742;4.224;2023-02-11T15:27:43;10.70;99.90
20712;DHT22;10517;50.742;4.224;2023-02-11T15:32:54;10.60;99.90
20712;DHT22;10517;50.742;4.224;2023-02-11T15:35:33;10.70;99.90
20712;DHT22;10517;50.742;4.224;2023-02-11T15:38:01;10.80;99.90
20712;DHT22;10517;50.742;4.224;2023-02-11T15:40:29;10.80;99.90
20712;DHT22;10517;50.742;4.224;2023-02-11T15:43:00;10.80;99.90
20712;DHT22;10517;50.742;4.224;2023-02-11T15:45:33;10.80;99.90
20712;DHT22;10517;50.742;4.224;2023-02-11T15:48:15;10.70;99.90
20712;DHT22;10517;50.742;4.224;2023-02-11T15:50:54;10.80;99.90
20712;DHT22;10517;50.742;4.224;2023-02-11T15:53:38;10.80;99.90
20712;DHT22;10517;50.742;4.224;2023-02-11T15:56:57;10.90;99.90
20712;DHT22;10517;50.742;4.224;2023-02-11T16:01:53;10.70;99.90
20712;DHT22;10517;50.742;4.224;2023-02-11T16:04:26;10.60;99.90
20712;DHT22;10517;50.742;4.224;2023-02-11T16:06:54;10.60;99.90
20712;DHT22;10517;50.742;4.224;2023-02-11T16:09:35;10.60;99.90
20712;DHT22;10517;50.742;4.224;2023-02-11T16:12:16;10.60;99.90
20712;DHT22;10517;50.742;4.224;2023-02-11T16:14:47;10.60;99.90
20712;DHT22;10517;50.742;4.224;2023-02-11T16:17:28;10.60;99.90
20712;DHT22;10517;50.742;4.224;2023-02-11T16:19:54;10.60;99.90
20712;DHT22;10517;50.742;4.224;2023-02-11T16:22:24;10.60;99.90
20712;DHT22;10517;50.742;4.224;2023-02-11T16:24:52;10.60;99.90
20712;DHT22;10517;50.742;4.224;2023-02-11T16:27:39;10.60;99.90
20712;DHT22;10517;50.742;4.224;2023-02-11T16:30:20;10.60;99.90
20712;DHT22;10517;50.742;4.224;2023-02-11T16:32:47;10.50;99.90
20712;DHT22;10517;50.742;4.224;2023-02-11T16:35:12;10.50;99.90
20712;DHT22;10517;50.742;4.224;2023-02-11T16:37:38;10.40;99.90
20712;DHT22;10517;50.742;4.224;2023-02-11T16:40:05;10.50;99.90
20712;DHT22;10517;50.742;4.224;2023-02-11T16:42:30;10.40;99.90
20712;DHT22;10517;50.742;4.224;2023-02-11T16:44:56;10.40;99.90
20712;DHT22;10517;50.742;4.224;2023-02-11T16:47:24;10.40;99.90
20712;DHT22;10517;50.742;4.224;2023-02-11T16:49:50;10.40;99.90
20712;DHT22;10517;50.742;4.224;2023-02-11T16:52:17;10.40;99.90
20712;DHT22;10517;50.742;4.224;2023-02-11T16:54:43;10.40;99.90
20712;DHT22;10517;50.742;4.224;2023-02-11T16:57:20;10.40;99.90
20712;DHT22;10517;50.742;4.224;2023-02-11T16:59:46;10.40;99.90
20712;DHT22;10517;50.742;4.224;2023-02-11T17:04:49;10.40;99.90
20712;DHT22;10517;50.742;4.224;2023-02-11T17:07:15;10.40;99.90
20712;DHT22;10517;50.742;4.224;2023-02-11T17:09:40;10.30;99.90
20712;DHT22;10517;50.742;4.224;2023-02-11T17:12:06;10.30;99.90
20712;DHT22;10517;50.742;4.224;2023-02-11T17:14:31;10.30;99.90
20712;DHT22;10517;50.742;4.224;2023-02-11T17:16:57;10.20;99.90
20712;DHT22;10517;50.742;4.224;2023-02-11T17:19:22;10.20;99.90
20712;DHT22;10517;50.742;4.224;2023-02-11T17:21:50;10.20;99.90
20712;DHT22;10517;50.742;4.224;2023-02-11T17:24:17;10.20;99.90
20712;DHT22;10517;50.742;4.224;2023-02-11T17:26:43;10.20;99.90
20712;DHT22;10517;50.742;4.224;2023-02-11T17:29:11;10.20;99.90
20712;DHT22;10517;50.742;4.224;2023-02-11T17:31:38;10.20;99.90
20712;DHT22;10517;50.742;4.224;2023-02-11T17:34:04;10.10;99.90
20712;DHT22;10517;50.742;4.224;2023-02-11T17:36:29;10.20;99.90
20712;DHT22;10517;50.742;4.224;2023-02-11T17:38:59;10.10;99.90
20712;DHT22;10517;50.742;4.224;2023-02-11T17:41:25;10.10;99.90
20712;DHT22;10517;50.742;4.224;2023-02-11T17:43:51;10.00;99.90
20712;DHT22;10517;50.742;4.224;2023-02-11T17:46:17;10.10;99.90
20712;DHT22;10517;50.742;4.224;2023-02-11T17:48:42;10.10;99.90
20712;DHT22;10517;50.742;4.224;2023-02-11T17:51:26;10.10;99.90
20712;DHT22;10517;50.742;4.224;2023-02-11T17:53:52;10.00;99.90
20712;DHT22;10517;50.742;4.224;2023-02-11T17:56:18;10.00;99.90
20712;DHT22;10517;50.742;4.224;2023-02-11T17:58:44;9.90;99.90
20712;DHT22;10517;50.742;4.224;2023-02-11T18:01:10;10.00;99.90
20712;DHT22;10517;50.742;4.224;2023-02-11T18:03:36;10.00;99.90
20712;DHT22;10517;50.742;4.224;2023-02-11T18:06:04;10.00;99.90
20712;DHT22;10517;50.742;4.224;2023-02-11T18:08:30;10.00;99.90
20712;DHT22;10517;50.742;4.224;2023-02-11T18:10:56;10.00;99.90
20712;DHT22;10517;50.742;4.224;2023-02-11T18:13:22;10.00;99.90
20712;DHT22;10517;50.742;4.224;2023-02-11T18:15:47;9.90;99.90
20712;DHT22;10517;50.742;4.224;2023-02-11T18:18:13;9.90;99.90
20712;DHT22;10517;50.742;4.224;2023-02-11T18:20:39;9.90;99.90